sensor_id;sensor_type;location;lat;lon;timestamp;P1;durP1;ratioP1;P2;durP2;ratioP2
78183;SDS011;67442;44.570;18.610;2023-08-21T00:01:02;48.20;;;18.48;;
78183;SDS011;67442;44.570;18.610;2023-08-21T00:03:30;45.50;;;19.10;;
78183;SDS011;67442;44.570;18.610;2023-08-21T00:05:57;40.88;;;18.23;;
78183;SDS011;67442;44.570;18.610;2023-08-21T00:08:24;45.97;;;18.92;;
78183;SDS011;67442;44.570;18.610;2023-08-21T00:10:55;45.05;;;18.98;;
78183;SDS011;67442;44.570;18.610;2023-08-21T00:13:23;43.13;;;17.85;;
78183;SDS011;67442;44.570;18.610;2023-08-21T00:15:50;42.40;;;18.35;;
78183;SDS011;67442;44.570;18.610;2023-08-21T00:18:17;38.63;;;17.85;;
78183;SDS011;67442;44.570;18.610;2023-08-21T00:20:44;37.67;;;17.40;;
78183;SDS011;67442;44.570;18.610;2023-08-21T00:23:12;43.78;;;17.73;;
78183;SDS011;67442;44.570;18.610;2023-08-21T00:25:39;43.22;;;18.27;;
78183;SDS011;67442;44.570;18.610;2023-08-21T00:28:08;33.35;;;16.88;;
78183;SDS011;67442;44.570;18.610;2023-08-21T00:30:39;36.20;;;17.55;;
78183;SDS011;67442;44.570;18.610;2023-08-21T00:33:09;38.75;;;17.95;;
78183;SDS011;67442;44.570;18.610;2023-08-21T00:35:36;38.42;;;17.10;;
78183;SDS011;67442;44.570;18.610;2023-08-21T00:38:04;37.45;;;17.42;;
78183;SDS011;67442;44.570;18.610;2023-08-21T00:40:31;36.50;;;17.58;;
78183;SDS011;67442;44.570;18.610;2023-08-21T00:42:59;42.55;;;17.75;;
78183;SDS011;67442;44.570;18.610;2023-08-21T00:45:29;40.55;;;17.45;;
78183;SDS011;67442;44.570;18.610;2023-08-21T00:47:57;43.15;;;18.25;;
78183;SDS011;67442;44.570;18.610;2023-08-21T00:50:24;43.70;;;18.08;;
78183;SDS011;67442;44.570;18.610;2023-08-21T00:52:51;41.35;;;18.15;;
78183;SDS011;67442;44.570;18.610;2023-08-21T00:55:22;38.35;;;17.15;;
78183;SDS011;67442;44.570;18.610;2023-08-21T00:57:49;38.28;;;17.25;;
78183;SDS011;67442;44.570;18.610;2023-08-21T01:00:20;39.38;;;17.23;;
78183;SDS011;67442;44.570;18.610;2023-08-21T01:02:48;36.58;;;16.73;;
78183;SDS011;67442;44.570;18.610;2023-08-21T01:05:21;35.47;;;16.33;;
78183;SDS011;67442;44.570;18.610;2023-08-21T01:07:53;36.83;;;16.92;;
78183;SDS011;67442;44.570;18.610;2023-08-21T01:10:36;34.67;;;17.05;;
78183;SDS011;67442;44.570;18.610;2023-08-21T01:13:19;37.35;;;16.67;;
78183;SDS011;67442;44.570;18.610;2023-08-21T01:16:05;36.38;;;16.80;;
78183;SDS011;67442;44.570;18.610;2023-08-21T01:18:34;39.72;;;17.08;;
78183;SDS011;67442;44.570;18.610;2023-08-21T01:21:03;38.70;;;16.83;;
78183;SDS011;67442;44.570;18.610;2023-08-21T01:25:58;33.05;;;16.13;;
78183;SDS011;67442;44.570;18.610;2023-08-21T01:28:25;39.83;;;16.23;;
78183;SDS011;67442;44.570;18.610;2023-08-21T01:31:02;37.92;;;16.95;;
78183;SDS011;67442;44.570;18.610;2023-08-21T01:33:38;37.45;;;17.20;;
78183;SDS011;67442;44.570;18.610;2023-08-21T01:36:28;36.10;;;16.30;;
78183;SDS011;67442;44.570;18.610;2023-08-21T01:38:54;29.95;;;14.88;;
78183;SDS011;67442;44.570;18.610;2023-08-21T01:41:25;38.10;;;16.13;;
78183;SDS011;67442;44.570;18.610;2023-08-21T01:44:09;38.03;;;16.25;;
78183;SDS011;67442;44.570;18.610;2023-08-21T01:46:36;33.15;;;16.20;;
78183;SDS011;67442;44.570;18.610;2023-08-21T01:49:08;34.92;;;16.02;;
78183;SDS011;67442;44.570;18.610;2023-08-21T01:51:35;32.30;;;15.98;;
78183;SDS011;67442;44.570;18.610;2023-08-21T01:54:02;31.13;;;15.45;;
78183;SDS011;67442;44.570;18.610;2023-08-21T01:56:30;34.50;;;16.17;;
78183;SDS011;67442;44.570;18.610;2023-08-21T01:59:01;36.35;;;16.55;;
78183;SDS011;67442;44.570;18.610;2023-08-21T02:01:27;33.00;;;15.63;;
78183;SDS011;67442;44.570;18.610;2023-08-21T02:03:54;30.33;;;14.60;;
78183;SDS011;67442;44.570;18.610;2023-08-21T02:06:22;31.42;;;15.48;;
78183;SDS011;67442;44.570;18.610;2023-08-21T02:08:48;29.77;;;16.08;;
78183;SDS011;67442;44.570;18.610;2023-08-21T02:11:16;30.33;;;14.38;;
78183;SDS011;67442;44.570;18.610;2023-08-21T02:13:43;32.78;;;15.23;;
78183;SDS011;67442;44.570;18.610;2023-08-21T02:16:14;29.27;;;14.23;;
78183;SDS011;67442;44.570;18.610;2023-08-21T02:18:42;30.58;;;15.13;;
78183;SDS011;67442;44.570;18.610;2023-08-21T02:21:13;30.15;;;15.00;;
78183;SDS011;67442;44.570;18.610;2023-08-21T02:23:40;30.80;;;15.50;;
78183;SDS011;67442;44.570;18.610;2023-08-21T02:26:08;29.40;;;14.63;;
78183;SDS011;67442;44.570;18.610;2023-08-21T02:28:38;29.17;;;15.13;;
78183;SDS011;67442;44.570;18.610;2023-08-21T02:31:08;26.17;;;14.13;;
78183;SDS011;67442;44.570;18.610;2023-08-21T02:33:40;27.33;;;14.10;;
78183;SDS011;67442;44.570;18.610;2023-08-21T02:36:07;26.58;;;14.10;;
78183;SDS011;67442;44.570;18.610;2023-08-21T02:38:38;28.83;;;14.20;;
78183;SDS011;67442;44.570;18.610;2023-08-21T02:41:06;34.47;;;15.25;;
78183;SDS011;67442;44.570;18.610;2023-08-21T02:43:37;33.63;;;16.27;;
78183;SDS011;67442;44.570;18.610;2023-08-21T02:46:04;30.13;;;14.45;;
78183;SDS011;67442;44.570;18.610;2023-08-21T02:48:31;31.58;;;14.48;;
78183;SDS011;67442;44.570;18.610;2023-08-21T02:50:59;35.08;;;15.25;;
78183;SDS011;67442;44.570;18.610;2023-08-21T02:53:28;28.20;;;13.73;;
78183;SDS011;67442;44.570;18.610;2023-08-21T02:55:55;29.42;;;14.40;;
78183;SDS011;67442;44.570;18.610;2023-08-21T02:58:22;31.02;;;14.60;;
78183;SDS011;67442;44.570;18.610;2023-08-21T03:00:53;32.13;;;14.48;;
78183;SDS011;67442;44.570;18.610;2023-08-21T03:03:21;30.02;;;14.70;;
78183;SDS011;67442;44.570;18.610;2023-08-21T03:05:51;25.65;;;13.73;;
78183;SDS011;67442;44.570;18.610;2023-08-21T03:08:22;30.08;;;13.90;;
78183;SDS011;67442;44.570;18.610;2023-08-21T03:10:50;25.90;;;14.68;;
78183;SDS011;67442;44.570;18.610;2023-08-21T03:13:17;29.48;;;13.98;;
78183;SDS011;67442;44.570;18.610;2023-08-21T03:15:44;27.73;;;13.65;;
78183;SDS011;67442;44.570;18.610;2023-08-21T03:18:11;29.02;;;14.10;;
78183;SDS011;67442;44.570;18.610;2023-08-21T03:20:45;23.98;;;12.30;;
78183;SDS011;67442;44.570;18.610;2023-08-21T03:23:16;25.52;;;13.73;;
78183;SDS011;67442;44.570;18.610;2023-08-21T03:25:43;24.40;;;13.27;;
78183;SDS011;67442;44.570;18.610;2023-08-21T03:28:11;27.27;;;13.45;;
78183;SDS011;67442;44.570;18.610;2023-08-21T03:30:42;25.77;;;13.05;;
78183;SDS011;67442;44.570;18.610;2023-08-21T03:33:09;26.10;;;14.05;;
78183;SDS011;67442;44.570;18.610;2023-08-21T03:35:36;26.90;;;12.57;;
78183;SDS011;67442;44.570;18.610;2023-08-21T03:38:08;24.92;;;12.57;;
78183;SDS011;67442;44.570;18.610;2023-08-21T03:40:39;27.05;;;13.45;;
78183;SDS011;67442;44.570;18.610;2023-08-21T03:43:06;25.45;;;12.27;;
78183;SDS011;67442;44.570;18.610;2023-08-21T03:45:37;26.42;;;13.27;;
78183;SDS011;67442;44.570;18.610;2023-08-21T03:48:05;28.35;;;12.75;;
78183;SDS011;67442;44.570;18.610;2023-08-21T03:50:32;23.17;;;12.82;;
78183;SDS011;67442;44.570;18.610;2023-08-21T03:52:59;24.52;;;12.15;;
78183;SDS011;67442;44.570;18.610;2023-08-21T03:55:27;25.25;;;12.80;;
78183;SDS011;67442;44.570;18.610;2023-08-21T03:57:54;25.45;;;12.82;;
78183;SDS011;67442;44.570;18.610;2023-08-21T04:00:22;24.23;;;12.13;;
78183;SDS011;67442;44.570;18.610;2023-08-21T04:02:49;25.42;;;12.38;;
78183;SDS011;67442;44.570;18.610;2023-08-21T04:05:16;27.05;;;13.07;;
78183;SDS011;67442;44.570;18.610;2023-08-21T04:07:43;24.10;;;12.10;;
78183;SDS011;67442;44.570;18.610;2023-08-21T04:10:14;25.33;;;11.52;;
78183;SDS011;67442;44.570;18.610;2023-08-21T04:12:45;25.35;;;12.98;;
78183;SDS011;67442;44.570;18.610;2023-08-21T04:15:16;24.10;;;12.80;;
78183;SDS011;67442;44.570;18.610;2023-08-21T04:17:44;24.83;;;12.57;;
78183;SDS011;67442;44.570;18.610;2023-08-21T04:20:11;25.48;;;12.25;;
78183;SDS011;67442;44.570;18.610;2023-08-21T04:22:38;22.67;;;11.65;;
78183;SDS011;67442;44.570;18.610;2023-08-21T04:25:05;18.88;;;10.88;;
78183;SDS011;67442;44.570;18.610;2023-08-21T04:27:33;24.20;;;13.20;;
78183;SDS011;67442;44.570;18.610;2023-08-21T04:30:05;24.42;;;12.07;;
78183;SDS011;67442;44.570;18.610;2023-08-21T04:32:35;23.58;;;11.77;;
78183;SDS011;67442;44.570;18.610;2023-08-21T04:35:02;21.88;;;11.88;;
78183;SDS011;67442;44.570;18.610;2023-08-21T04:37:31;21.98;;;12.20;;
78183;SDS011;67442;44.570;18.610;2023-08-21T04:39:57;21.63;;;12.43;;
78183;SDS011;67442;44.570;18.610;2023-08-21T04:42:29;23.83;;;11.32;;
78183;SDS011;67442;44.570;18.610;2023-08-21T04:44:59;22.50;;;11.48;;
78183;SDS011;67442;44.570;18.610;2023-08-21T04:47:28;28.40;;;13.55;;
78183;SDS011;67442;44.570;18.610;2023-08-21T04:49:55;44.45;;;17.02;;
78183;SDS011;67442;44.570;18.610;2023-08-21T04:52:26;66.00;;;21.05;;
78183;SDS011;67442;44.570;18.610;2023-08-21T04:54:53;78.82;;;24.80;;
78183;SDS011;67442;44.570;18.610;2023-08-21T05:00:00;68.35;;;24.58;;
78183;SDS011;67442;44.570;18.610;2023-08-21T05:02:29;81.70;;;28.05;;
78183;SDS011;67442;44.570;18.610;2023-08-21T05:04:57;69.90;;;26.88;;
78183;SDS011;67442;44.570;18.610;2023-08-21T05:07:24;73.95;;;25.77;;
78183;SDS011;67442;44.570;18.610;2023-08-21T05:09:53;79.50;;;27.80;;
78183;SDS011;67442;44.570;18.610;2023-08-21T05:12:25;81.72;;;29.13;;
78183;SDS011;67442;44.570;18.610;2023-08-21T05:14:53;81.53;;;28.25;;
78183;SDS011;67442;44.570;18.610;2023-08-21T05:17:24;84.13;;;28.30;;
78183;SDS011;67442;44.570;18.610;2023-08-21T05:19:55;91.40;;;27.17;;
78183;SDS011;67442;44.570;18.610;2023-08-21T05:22:22;80.88;;;28.08;;
78183;SDS011;67442;44.570;18.610;2023-08-21T05:24:49;73.07;;;26.55;;
78183;SDS011;67442;44.570;18.610;2023-08-21T05:27:17;78.43;;;28.60;;
78183;SDS011;67442;44.570;18.610;2023-08-21T05:29:44;80.72;;;27.35;;
78183;SDS011;67442;44.570;18.610;2023-08-21T05:32:11;79.88;;;26.75;;
78183;SDS011;67442;44.570;18.610;2023-08-21T05:34:39;70.50;;;26.35;;
78183;SDS011;67442;44.570;18.610;2023-08-21T05:37:10;77.60;;;26.65;;
78183;SDS011;67442;44.570;18.610;2023-08-21T05:39:38;75.25;;;26.13;;
78183;SDS011;67442;44.570;18.610;2023-08-21T05:42:08;74.07;;;27.33;;
78183;SDS011;67442;44.570;18.610;2023-08-21T05:44:35;75.22;;;27.15;;
78183;SDS011;67442;44.570;18.610;2023-08-21T05:47:03;76.95;;;26.20;;
78183;SDS011;67442;44.570;18.610;2023-08-21T05:49:31;79.55;;;26.80;;
78183;SDS011;67442;44.570;18.610;2023-08-21T05:51:58;68.00;;;26.10;;
78183;SDS011;67442;44.570;18.610;2023-08-21T05:54:25;86.47;;;26.30;;
78183;SDS011;67442;44.570;18.610;2023-08-21T05:56:53;67.97;;;26.25;;
78183;SDS011;67442;44.570;18.610;2023-08-21T05:59:29;72.07;;;24.90;;
78183;SDS011;67442;44.570;18.610;2023-08-21T06:02:11;61.63;;;24.92;;
78183;SDS011;67442;44.570;18.610;2023-08-21T06:04:39;65.38;;;24.55;;
78183;SDS011;67442;44.570;18.610;2023-08-21T06:07:06;59.10;;;23.85;;
78183;SDS011;67442;44.570;18.610;2023-08-21T06:09:33;67.20;;;23.90;;
78183;SDS011;67442;44.570;18.610;2023-08-21T06:12:02;60.45;;;23.58;;
78183;SDS011;67442;44.570;18.610;2023-08-21T06:14:30;68.28;;;24.15;;
78183;SDS011;67442;44.570;18.610;2023-08-21T06:37:10;62.60;;;23.83;;
78183;SDS011;67442;44.570;18.610;2023-08-21T06:39:41;62.90;;;22.83;;
78183;SDS011;67442;44.570;18.610;2023-08-21T06:42:08;62.90;;;23.38;;
78183;SDS011;67442;44.570;18.610;2023-08-21T06:44:40;63.78;;;23.52;;
78183;SDS011;67442;44.570;18.610;2023-08-21T06:47:07;61.38;;;22.83;;
78183;SDS011;67442;44.570;18.610;2023-08-21T06:49:34;62.40;;;23.13;;
78183;SDS011;67442;44.570;18.610;2023-08-21T06:52:06;58.63;;;22.33;;
78183;SDS011;67442;44.570;18.610;2023-08-21T06:54:36;60.33;;;23.73;;
78183;SDS011;67442;44.570;18.610;2023-08-21T06:57:04;54.65;;;22.48;;
78183;SDS011;67442;44.570;18.610;2023-08-21T06:59:35;56.00;;;23.23;;
78183;SDS011;67442;44.570;18.610;2023-08-21T07:02:03;56.92;;;21.88;;
78183;SDS011;67442;44.570;18.610;2023-08-21T07:04:31;56.60;;;22.65;;
78183;SDS011;67442;44.570;18.610;2023-08-21T07:07:02;58.70;;;22.90;;
78183;SDS011;67442;44.570;18.610;2023-08-21T07:09:29;57.30;;;23.45;;
78183;SDS011;67442;44.570;18.610;2023-08-21T07:11:56;61.75;;;23.63;;
78183;SDS011;67442;44.570;18.610;2023-08-21T07:14:27;51.67;;;21.92;;
78183;SDS011;67442;44.570;18.610;2023-08-21T07:16:55;51.67;;;20.88;;
78183;SDS011;67442;44.570;18.610;2023-08-21T07:19:22;54.33;;;21.05;;
78183;SDS011;67442;44.570;18.610;2023-08-21T07:21:49;52.20;;;21.35;;
78183;SDS011;67442;44.570;18.610;2023-08-21T07:24:20;46.15;;;21.48;;
78183;SDS011;67442;44.570;18.610;2023-08-21T07:26:48;49.42;;;20.75;;
78183;SDS011;67442;44.570;18.610;2023-08-21T07:29:19;46.67;;;20.05;;
78183;SDS011;67442;44.570;18.610;2023-08-21T07:31:46;46.63;;;20.58;;
78183;SDS011;67442;44.570;18.610;2023-08-21T07:34:17;51.83;;;21.73;;
78183;SDS011;67442;44.570;18.610;2023-08-21T07:36:49;47.50;;;20.58;;
78183;SDS011;67442;44.570;18.610;2023-08-21T07:39:20;54.17;;;20.80;;
78183;SDS011;67442;44.570;18.610;2023-08-21T07:41:50;47.55;;;20.70;;
78183;SDS011;67442;44.570;18.610;2023-08-21T07:44:22;45.05;;;19.92;;
78183;SDS011;67442;44.570;18.610;2023-08-21T07:46:48;52.78;;;20.35;;
78183;SDS011;67442;44.570;18.610;2023-08-21T07:49:17;50.28;;;20.33;;
78183;SDS011;67442;44.570;18.610;2023-08-21T07:51:44;45.05;;;19.83;;
78183;SDS011;67442;44.570;18.610;2023-08-21T07:54:12;48.85;;;19.92;;
78183;SDS011;67442;44.570;18.610;2023-08-21T07:56:39;43.97;;;19.25;;
78183;SDS011;67442;44.570;18.610;2023-08-21T07:59:06;47.17;;;19.63;;
78183;SDS011;67442;44.570;18.610;2023-08-21T08:01:34;49.40;;;20.52;;
78183;SDS011;67442;44.570;18.610;2023-08-21T08:04:01;44.88;;;19.30;;
78183;SDS011;67442;44.570;18.610;2023-08-21T08:06:29;47.78;;;19.67;;
78183;SDS011;67442;44.570;18.610;2023-08-21T08:09:01;43.53;;;19.00;;
78183;SDS011;67442;44.570;18.610;2023-08-21T08:11:31;44.65;;;20.73;;
78183;SDS011;67442;44.570;18.610;2023-08-21T08:13:59;47.40;;;19.98;;
78183;SDS011;67442;44.570;18.610;2023-08-21T08:16:26;43.78;;;19.00;;
78183;SDS011;67442;44.570;18.610;2023-08-21T08:18:57;52.08;;;20.40;;
78183;SDS011;67442;44.570;18.610;2023-08-21T08:21:29;43.88;;;19.27;;
78183;SDS011;67442;44.570;18.610;2023-08-21T08:24:00;42.40;;;17.98;;
78183;SDS011;67442;44.570;18.610;2023-08-21T08:26:27;43.90;;;19.17;;
78183;SDS011;67442;44.570;18.610;2023-08-21T08:28:54;43.78;;;19.40;;
78183;SDS011;67442;44.570;18.610;2023-08-21T08:31:22;39.83;;;18.48;;
78183;SDS011;67442;44.570;18.610;2023-08-21T08:33:55;41.08;;;18.92;;
78183;SDS011;67442;44.570;18.610;2023-08-21T08:36:26;43.88;;;19.25;;
78183;SDS011;67442;44.570;18.610;2023-08-21T08:38:57;37.17;;;17.70;;
78183;SDS011;67442;44.570;18.610;2023-08-21T08:44:28;39.65;;;17.13;;
78183;SDS011;67442;44.570;18.610;2023-08-21T08:46:55;41.60;;;17.60;;
78183;SDS011;67442;44.570;18.610;2023-08-21T08:49:22;40.40;;;18.02;;
78183;SDS011;67442;44.570;18.610;2023-08-21T08:51:50;46.40;;;18.27;;
78183;SDS011;67442;44.570;18.610;2023-08-21T08:54:22;40.95;;;18.75;;
78183;SDS011;67442;44.570;18.610;2023-08-21T08:57:09;41.25;;;17.98;;
78183;SDS011;67442;44.570;18.610;2023-08-21T08:59:40;43.67;;;18.25;;
78183;SDS011;67442;44.570;18.610;2023-08-21T09:02:07;39.90;;;17.73;;
78183;SDS011;67442;44.570;18.610;2023-08-21T09:04:35;39.85;;;18.05;;
78183;SDS011;67442;44.570;18.610;2023-08-21T09:07:11;42.28;;;18.00;;
78183;SDS011;67442;44.570;18.610;2023-08-21T09:09:46;38.95;;;17.52;;
78183;SDS011;67442;44.570;18.610;2023-08-21T09:12:18;38.60;;;17.70;;
78183;SDS011;67442;44.570;18.610;2023-08-21T09:14:49;38.65;;;17.35;;
78183;SDS011;67442;44.570;18.610;2023-08-21T09:17:17;37.65;;;17.27;;
78183;SDS011;67442;44.570;18.610;2023-08-21T09:19:44;35.85;;;17.10;;
78183;SDS011;67442;44.570;18.610;2023-08-21T09:22:16;33.05;;;16.92;;
78183;SDS011;67442;44.570;18.610;2023-08-21T09:27:26;39.70;;;17.42;;
78183;SDS011;67442;44.570;18.610;2023-08-21T09:29:54;34.58;;;16.65;;
78183;SDS011;67442;44.570;18.610;2023-08-21T09:32:25;37.88;;;17.95;;
78183;SDS011;67442;44.570;18.610;2023-08-21T09:34:53;33.25;;;16.23;;
78183;SDS011;67442;44.570;18.610;2023-08-21T09:37:28;35.78;;;16.58;;
78183;SDS011;67442;44.570;18.610;2023-08-21T09:42:32;32.83;;;15.60;;
78183;SDS011;67442;44.570;18.610;2023-08-21T09:45:00;38.75;;;16.10;;
78183;SDS011;67442;44.570;18.610;2023-08-21T09:47:27;38.60;;;16.42;;
78183;SDS011;67442;44.570;18.610;2023-08-21T09:49:55;37.80;;;16.02;;
78183;SDS011;67442;44.570;18.610;2023-08-21T09:52:22;34.72;;;15.93;;
78183;SDS011;67442;44.570;18.610;2023-08-21T09:54:50;36.90;;;16.95;;
78183;SDS011;67442;44.570;18.610;2023-08-21T09:57:21;36.78;;;17.48;;
78183;SDS011;67442;44.570;18.610;2023-08-21T09:59:54;34.78;;;16.77;;
78183;SDS011;67442;44.570;18.610;2023-08-21T10:02:44;35.42;;;16.95;;
78183;SDS011;67442;44.570;18.610;2023-08-21T10:05:16;33.45;;;15.40;;
78183;SDS011;67442;44.570;18.610;2023-08-21T10:07:44;31.40;;;15.45;;
78183;SDS011;67442;44.570;18.610;2023-08-21T10:10:18;29.83;;;15.50;;
78183;SDS011;67442;44.570;18.610;2023-08-21T10:12:48;30.52;;;14.95;;
78183;SDS011;67442;44.570;18.610;2023-08-21T10:15:16;28.92;;;14.93;;
78183;SDS011;67442;44.570;18.610;2023-08-21T10:17:44;33.13;;;15.68;;
78183;SDS011;67442;44.570;18.610;2023-08-21T10:20:11;31.92;;;15.63;;
78183;SDS011;67442;44.570;18.610;2023-08-21T10:22:54;31.48;;;15.40;;
78183;SDS011;67442;44.570;18.610;2023-08-21T10:25:33;32.63;;;16.67;;
78183;SDS011;67442;44.570;18.610;2023-08-21T10:28:07;27.80;;;14.38;;
78183;SDS011;67442;44.570;18.610;2023-08-21T10:30:35;29.10;;;15.23;;
78183;SDS011;67442;44.570;18.610;2023-08-21T10:33:06;30.20;;;15.10;;
78183;SDS011;67442;44.570;18.610;2023-08-21T10:35:33;27.65;;;15.65;;
78183;SDS011;67442;44.570;18.610;2023-08-21T10:38:15;33.47;;;15.27;;
78183;SDS011;67442;44.570;18.610;2023-08-21T10:41:19;30.95;;;15.27;;
78183;SDS011;67442;44.570;18.610;2023-08-21T10:43:43;31.48;;;14.57;;
78183;SDS011;67442;44.570;18.610;2023-08-21T10:46:15;29.52;;;14.68;;
78183;SDS011;67442;44.570;18.610;2023-08-21T10:48:46;32.50;;;14.57;;
78183;SDS011;67442;44.570;18.610;2023-08-21T10:51:17;27.50;;;15.55;;
78183;SDS011;67442;44.570;18.610;2023-08-21T10:53:45;30.75;;;15.13;;
78183;SDS011;67442;44.570;18.610;2023-08-21T10:56:12;28.00;;;14.25;;
78183;SDS011;67442;44.570;18.610;2023-08-21T10:58:42;29.98;;;15.55;;
78183;SDS011;67442;44.570;18.610;2023-08-21T11:01:12;24.95;;;13.82;;
78183;SDS011;67442;44.570;18.610;2023-08-21T11:03:46;28.02;;;14.30;;
78183;SDS011;67442;44.570;18.610;2023-08-21T11:06:21;26.27;;;13.82;;
78183;SDS011;67442;44.570;18.610;2023-08-21T11:08:48;29.50;;;13.98;;
78183;SDS011;67442;44.570;18.610;2023-08-21T11:11:16;29.80;;;14.80;;
78183;SDS011;67442;44.570;18.610;2023-08-21T11:13:51;27.25;;;13.15;;
78183;SDS011;67442;44.570;18.610;2023-08-21T11:16:24;28.23;;;14.52;;
78183;SDS011;67442;44.570;18.610;2023-08-21T11:18:54;29.00;;;14.05;;
78183;SDS011;67442;44.570;18.610;2023-08-21T11:21:22;30.20;;;14.13;;
78183;SDS011;67442;44.570;18.610;2023-08-21T11:23:53;31.33;;;14.60;;
78183;SDS011;67442;44.570;18.610;2023-08-21T11:26:21;25.65;;;13.35;;
78183;SDS011;67442;44.570;18.610;2023-08-21T11:28:48;26.33;;;14.43;;
78183;SDS011;67442;44.570;18.610;2023-08-21T11:31:16;32.33;;;14.73;;
78183;SDS011;67442;44.570;18.610;2023-08-21T11:33:50;28.63;;;13.48;;
78183;SDS011;67442;44.570;18.610;2023-08-21T11:36:20;26.30;;;13.07;;
78183;SDS011;67442;44.570;18.610;2023-08-21T11:39:01;27.05;;;13.90;;
78183;SDS011;67442;44.570;18.610;2023-08-21T11:41:54;24.63;;;13.15;;
78183;SDS011;67442;44.570;18.610;2023-08-21T11:44:22;24.90;;;13.23;;
78183;SDS011;67442;44.570;18.610;2023-08-21T11:46:51;27.50;;;13.20;;
78183;SDS011;67442;44.570;18.610;2023-08-21T11:49:19;30.58;;;13.45;;
78183;SDS011;67442;44.570;18.610;2023-08-21T11:51:48;28.75;;;14.02;;
78183;SDS011;67442;44.570;18.610;2023-08-21T11:54:19;25.48;;;12.77;;
78183;SDS011;67442;44.570;18.610;2023-08-21T11:56:50;26.50;;;13.32;;
78183;SDS011;67442;44.570;18.610;2023-08-21T11:59:22;24.27;;;12.65;;
78183;SDS011;67442;44.570;18.610;2023-08-21T12:01:50;23.65;;;13.55;;
78183;SDS011;67442;44.570;18.610;2023-08-21T12:04:18;26.92;;;13.10;;
78183;SDS011;67442;44.570;18.610;2023-08-21T12:06:45;24.58;;;12.93;;
78183;SDS011;67442;44.570;18.610;2023-08-21T12:09:13;25.35;;;13.18;;
78183;SDS011;67442;44.570;18.610;2023-08-21T12:11:41;22.13;;;12.82;;
78183;SDS011;67442;44.570;18.610;2023-08-21T12:14:08;26.30;;;13.02;;
78183;SDS011;67442;44.570;18.610;2023-08-21T12:16:40;24.20;;;12.70;;
78183;SDS011;67442;44.570;18.610;2023-08-21T12:19:11;27.85;;;13.25;;
78183;SDS011;67442;44.570;18.610;2023-08-21T12:21:40;24.23;;;12.38;;
78183;SDS011;67442;44.570;18.610;2023-08-21T12:24:08;25.35;;;12.65;;
78183;SDS011;67442;44.570;18.610;2023-08-21T12:26:35;22.95;;;12.73;;
78183;SDS011;67442;44.570;18.610;2023-08-21T12:29:02;22.77;;;12.88;;
78183;SDS011;67442;44.570;18.610;2023-08-21T12:31:29;21.15;;;12.00;;
78183;SDS011;67442;44.570;18.610;2023-08-21T12:34:01;23.45;;;12.07;;
78183;SDS011;67442;44.570;18.610;2023-08-21T12:36:35;24.08;;;12.40;;
78183;SDS011;67442;44.570;18.610;2023-08-21T12:39:03;22.00;;;12.68;;
78183;SDS011;67442;44.570;18.610;2023-08-21T12:41:30;21.10;;;11.85;;
78183;SDS011;67442;44.570;18.610;2023-08-21T12:44:02;23.88;;;12.82;;
78183;SDS011;67442;44.570;18.610;2023-08-21T12:46:36;21.88;;;12.15;;
78183;SDS011;67442;44.570;18.610;2023-08-21T12:49:07;24.40;;;12.43;;
78183;SDS011;67442;44.570;18.610;2023-08-21T12:51:39;21.65;;;12.85;;
78183;SDS011;67442;44.570;18.610;2023-08-21T12:54:05;21.75;;;11.90;;
78183;SDS011;67442;44.570;18.610;2023-08-21T12:56:37;24.48;;;13.15;;
78183;SDS011;67442;44.570;18.610;2023-08-21T12:59:05;22.42;;;11.90;;
78183;SDS011;67442;44.570;18.610;2023-08-21T13:01:33;22.63;;;11.80;;
78183;SDS011;67442;44.570;18.610;2023-08-21T13:04:01;22.25;;;12.93;;
78183;SDS011;67442;44.570;18.610;2023-08-21T13:06:28;27.23;;;12.65;;
78183;SDS011;67442;44.570;18.610;2023-08-21T13:09:00;21.20;;;11.48;;
78183;SDS011;67442;44.570;18.610;2023-08-21T13:11:28;24.60;;;13.45;;
78183;SDS011;67442;44.570;18.610;2023-08-21T13:13:57;20.40;;;11.60;;
78183;SDS011;67442;44.570;18.610;2023-08-21T13:16:25;20.83;;;12.30;;
78183;SDS011;67442;44.570;18.610;2023-08-21T13:18:52;22.70;;;11.93;;
78183;SDS011;67442;44.570;18.610;2023-08-21T13:21:20;23.33;;;12.13;;
78183;SDS011;67442;44.570;18.610;2023-08-21T13:23:51;21.08;;;11.60;;
78183;SDS011;67442;44.570;18.610;2023-08-21T13:26:22;23.08;;;12.68;;
78183;SDS011;67442;44.570;18.610;2023-08-21T13:28:55;25.10;;;11.80;;
78183;SDS011;67442;44.570;18.610;2023-08-21T13:31:23;23.17;;;12.57;;
78183;SDS011;67442;44.570;18.610;2023-08-21T13:33:51;19.25;;;11.68;;
78183;SDS011;67442;44.570;18.610;2023-08-21T13:36:19;22.27;;;11.25;;
78183;SDS011;67442;44.570;18.610;2023-08-21T13:38:47;20.35;;;11.68;;
78183;SDS011;67442;44.570;18.610;2023-08-21T13:41:15;20.70;;;11.40;;
78183;SDS011;67442;44.570;18.610;2023-08-21T13:43:46;21.55;;;11.75;;
78183;SDS011;67442;44.570;18.610;2023-08-21T13:46:14;19.80;;;11.43;;
78183;SDS011;67442;44.570;18.610;2023-08-21T14:05:33;20.85;;;11.55;;
78183;SDS011;67442;44.570;18.610;2023-08-21T14:08:03;18.23;;;10.90;;
78183;SDS011;67442;44.570;18.610;2023-08-21T14:10:30;20.30;;;10.93;;
78183;SDS011;67442;44.570;18.610;2023-08-21T14:12:57;17.33;;;10.82;;
78183;SDS011;67442;44.570;18.610;2023-08-21T14:15:25;18.73;;;11.55;;
78183;SDS011;67442;44.570;18.610;2023-08-21T14:17:56;17.98;;;10.02;;
78183;SDS011;67442;44.570;18.610;2023-08-21T14:20:24;18.85;;;11.25;;
78183;SDS011;67442;44.570;18.610;2023-08-21T14:22:51;19.60;;;11.18;;
78183;SDS011;67442;44.570;18.610;2023-08-21T14:25:18;17.38;;;10.80;;
78183;SDS011;67442;44.570;18.610;2023-08-21T14:27:47;20.10;;;11.27;;
78183;SDS011;67442;44.570;18.610;2023-08-21T14:30:14;18.33;;;10.68;;
78183;SDS011;67442;44.570;18.610;2023-08-21T14:32:46;18.15;;;10.70;;
78183;SDS011;67442;44.570;18.610;2023-08-21T14:35:13;18.10;;;11.05;;
78183;SDS011;67442;44.570;18.610;2023-08-21T14:37:41;17.60;;;10.05;;
78183;SDS011;67442;44.570;18.610;2023-08-21T14:40:08;17.92;;;10.85;;
78183;SDS011;67442;44.570;18.610;2023-08-21T14:42:41;21.02;;;11.43;;
78183;SDS011;67442;44.570;18.610;2023-08-21T14:45:08;15.88;;;10.27;;
78183;SDS011;67442;44.570;18.610;2023-08-21T14:47:40;17.60;;;10.52;;
78183;SDS011;67442;44.570;18.610;2023-08-21T14:50:08;17.20;;;10.55;;
78183;SDS011;67442;44.570;18.610;2023-08-21T14:52:39;16.58;;;9.93;;
78183;SDS011;67442;44.570;18.610;2023-08-21T14:55:07;19.65;;;11.13;;
78183;SDS011;67442;44.570;18.610;2023-08-21T14:57:37;22.27;;;11.63;;
78183;SDS011;67442;44.570;18.610;2023-08-21T15:00:04;20.67;;;11.80;;
78183;SDS011;67442;44.570;18.610;2023-08-21T15:02:35;18.40;;;10.77;;
78183;SDS011;67442;44.570;18.610;2023-08-21T15:05:02;19.92;;;11.50;;
78183;SDS011;67442;44.570;18.610;2023-08-21T15:07:30;15.60;;;10.20;;
78183;SDS011;67442;44.570;18.610;2023-08-21T15:10:01;18.25;;;10.88;;
78183;SDS011;67442;44.570;18.610;2023-08-21T15:12:29;18.40;;;10.98;;